createdAt,value
2023-02-13T00:00:16.470Z,39
2023-02-13T00:05:19.577Z,40
2023-02-13T00:10:19.490Z,41
2023-02-13T00:15:19.447Z,42
2023-02-13T00:20:16.446Z,42
2023-02-13T00:25:16.474Z,42
2023-02-13T00:30:16.401Z,42
2023-02-13T00:35:19.490Z,43
2023-02-13T00:40:16.584Z,43
2023-02-13T00:45:16.466Z,44
2023-02-13T00:50:42.414Z,44
2023-02-13T00:55:19.470Z,44
2023-02-13T01:00:16.475Z,46
2023-02-13T01:05:19.445Z,47
2023-02-13T01:10:19.642Z,47
2023-02-13T01:15:19.470Z,46
2023-02-13T01:20:16.466Z,47
2023-02-13T01:25:19.505Z,48
2023-02-13T01:30:19.522Z,48
2023-02-13T01:35:16.529Z,48
2023-02-13T01:40:16.554Z,49
2023-02-13T01:45:19.584Z,49
2023-02-13T01:50:19.516Z,50
2023-02-13T01:55:16.522Z,50
2023-02-13T02:00:19.482Z,51
2023-02-13T02:05:16.564Z,50
2023-02-13T02:10:19.543Z,50
2023-02-13T02:15:19.477Z,51
2023-02-13T02:20:16.551Z,51
2023-02-13T02:25:19.559Z,52
2023-02-13T02:30:16.622Z,52
2023-02-13T02:35:16.513Z,53
2023-02-13T02:40:16.563Z,53
2023-02-13T02:45:35.717Z,53
2023-02-13T02:50:16.562Z,53
2023-02-13T02:55:16.637Z,53
2023-02-13T03:00:19.566Z,54
2023-02-13T03:05:16.365Z,54
2023-02-13T03:10:16.559Z,54
2023-02-13T03:15:19.532Z,54
2023-02-13T03:20:16.619Z,55
2023-02-13T03:25:19.745Z,55
2023-02-13T03:30:16.570Z,55
2023-02-13T03:35:19.557Z,56
2023-02-13T03:40:16.551Z,56
2023-02-13T03:45:19.555Z,56
2023-02-13T03:50:19.589Z,56
2023-02-13T03:55:19.543Z,56
2023-02-13T04:00:16.644Z,55
2023-02-13T04:05:19.544Z,55
2023-02-13T04:10:19.584Z,56
2023-02-13T04:15:19.558Z,56
2023-02-13T04:20:19.552Z,56
2023-02-13T04:25:19.670Z,56
2023-02-13T04:30:19.685Z,56
2023-02-13T04:35:16.879Z,56
2023-02-13T04:40:16.579Z,56
2023-02-13T04:45:19.617Z,56
2023-02-13T04:50:19.632Z,57
2023-02-13T04:55:16.691Z,56
2023-02-13T05:00:18.880Z,56
2023-02-13T05:05:15.936Z,56
2023-02-13T05:10:18.872Z,56
2023-02-13T05:15:15.683Z,57
2023-02-13T05:20:15.876Z,56
2023-02-13T05:25:18.917Z,56
2023-02-13T05:30:18.935Z,56
2023-02-13T05:35:15.885Z,56
2023-02-13T05:40:19.032Z,56
2023-02-13T05:45:18.901Z,56
2023-02-13T05:50:19.055Z,56
2023-02-13T05:55:18.897Z,56
2023-02-13T06:00:18.871Z,56
2023-02-13T06:05:15.916Z,55
2023-02-13T06:10:18.924Z,55
2023-02-13T06:15:19.087Z,55
2023-02-13T06:20:18.876Z,55
2023-02-13T06:25:15.684Z,55
2023-02-13T06:30:18.962Z,55
2023-02-13T06:35:18.895Z,56
2023-02-13T06:40:18.939Z,57
2023-02-13T06:45:15.949Z,58
2023-02-13T06:50:19.085Z,59
2023-02-13T06:55:18.918Z,60
2023-02-13T07:00:16.000Z,60
2023-02-13T07:05:18.986Z,61
2023-02-13T07:10:16.073Z,62
2023-02-13T07:15:18.974Z,63
2023-02-13T07:20:18.977Z,64
2023-02-13T07:25:16.149Z,65
2023-02-13T07:30:18.963Z,66
2023-02-13T07:35:15.986Z,66
2023-02-13T07:40:18.957Z,67
2023-02-13T07:45:18.959Z,67
2023-02-13T07:50:18.941Z,68
2023-02-13T07:55:15.807Z,69
2023-02-13T08:00:16.061Z,69
2023-02-13T08:05:19.016Z,70
2023-02-13T08:10:19.003Z,70
2023-02-13T08:15:15.991Z,71
2023-02-13T08:20:19.007Z,72
2023-02-13T08:25:18.997Z,72
2023-02-13T08:30:15.982Z,73
2023-02-13T08:35:19.139Z,73
2023-02-13T08:40:16.101Z,74
2023-02-13T08:45:16.021Z,75
2023-02-13T08:50:19.029Z,76
2023-02-13T08:55:16.070Z,77
2023-02-13T09:00:18.994Z,77
2023-02-13T09:05:18.979Z,78
2023-02-13T09:10:16.113Z,79
2023-02-13T09:15:16.146Z,80
2023-02-13T09:20:19.007Z,81
2023-02-13T09:25:16.047Z,82
2023-02-13T09:30:19.225Z,82
2023-02-13T09:35:19.103Z,83
2023-02-13T09:40:16.559Z,83
2023-02-13T09:45:19.143Z,83
2023-02-13T09:50:15.911Z,84
2023-02-13T09:55:16.251Z,84
2023-02-13T10:00:19.132Z,84
2023-02-13T10:05:19.115Z,84
2023-02-13T10:10:16.074Z,84
2023-02-13T10:15:19.367Z,84
2023-02-13T10:20:19.137Z,84
2023-02-13T10:25:16.146Z,84
2023-02-13T10:30:19.190Z,84
2023-02-13T10:35:19.039Z,84
2023-02-13T10:40:16.112Z,84
2023-02-13T10:45:19.083Z,84
2023-02-13T10:50:19.468Z,84
2023-02-13T10:55:16.151Z,84
2023-02-13T11:00:19.127Z,84
2023-02-13T11:05:19.081Z,83
2023-02-13T11:10:16.131Z,83
2023-02-13T11:15:19.523Z,83
2023-02-13T11:20:19.113Z,83
2023-02-13T11:25:16.239Z,83
2023-02-13T11:30:16.335Z,83
2023-02-13T11:35:19.193Z,82
2023-02-13T11:40:19.100Z,82
2023-02-13T11:45:19.125Z,81
2023-02-13T11:50:19.108Z,81
2023-02-13T11:55:16.150Z,81
2023-02-13T12:00:19.265Z,81
2023-02-13T12:05:19.148Z,81
2023-02-13T12:10:19.161Z,81
2023-02-13T12:15:19.115Z,82
2023-02-13T12:20:19.118Z,82
2023-02-13T12:25:19.148Z,82
2023-02-13T12:30:19.125Z,82
2023-02-13T12:35:16.261Z,82
2023-02-13T12:40:16.271Z,83
2023-02-13T12:45:16.268Z,83
2023-02-13T12:50:16.205Z,83
2023-02-13T12:55:16.200Z,83
2023-02-13T13:00:16.206Z,83
2023-02-13T13:05:16.275Z,83
2023-02-13T13:10:16.256Z,83
2023-02-13T13:15:19.197Z,83
2023-02-13T13:20:19.241Z,83
2023-02-13T13:25:19.194Z,83
2023-02-13T13:30:16.312Z,83
2023-02-13T13:35:19.225Z,83
2023-02-13T13:40:19.433Z,83
2023-02-13T13:45:19.217Z,83
2023-02-13T13:50:19.201Z,83
2023-02-13T13:55:16.246Z,83
2023-02-13T14:00:19.236Z,83
2023-02-13T14:05:16.230Z,83
2023-02-13T14:10:19.248Z,83
2023-02-13T14:15:19.365Z,82
2023-02-13T14:20:19.188Z,82
2023-02-13T14:25:19.190Z,82
2023-02-13T14:30:19.324Z,82
2023-02-13T14:35:19.259Z,82
2023-02-13T14:40:19.199Z,82
2023-02-13T14:45:19.230Z,82
2023-02-13T14:50:16.487Z,82
2023-02-13T14:55:19.276Z,81
2023-02-13T15:00:19.247Z,81
2023-02-13T15:05:19.234Z,81
2023-02-13T15:10:16.302Z,81
2023-02-13T15:15:16.273Z,81
2023-02-13T15:20:19.502Z,80
2023-02-13T15:25:19.259Z,79
2023-02-13T15:30:16.395Z,79
2023-02-13T15:35:16.303Z,79
2023-02-13T15:40:19.361Z,78
2023-02-13T15:45:19.325Z,78
2023-02-13T15:50:16.314Z,78
2023-02-13T15:55:19.493Z,77
2023-02-13T16:00:16.326Z,77
2023-02-13T16:05:29.440Z,77
2023-02-13T16:10:16.413Z,76
2023-02-13T16:15:19.349Z,76
2023-02-13T16:20:19.377Z,75
2023-02-13T16:25:19.317Z,74
2023-02-13T16:30:19.561Z,74
2023-02-13T16:35:16.336Z,74
2023-02-13T16:40:19.334Z,73
2023-02-13T16:45:19.365Z,73
2023-02-13T16:50:16.396Z,73
2023-02-13T16:55:16.389Z,73
2023-02-13T17:00:19.508Z,73
2023-02-13T17:05:16.485Z,73
2023-02-13T17:10:19.385Z,73
2023-02-13T17:15:19.391Z,73
2023-02-13T17:20:19.400Z,73
2023-02-13T17:25:19.378Z,73
2023-02-13T17:30:16.466Z,72
2023-02-13T17:35:19.571Z,72
2023-02-13T17:40:19.387Z,72
2023-02-13T17:45:19.403Z,72
2023-02-13T17:50:16.401Z,72
2023-02-13T17:55:19.455Z,72
2023-02-13T18:00:19.435Z,72
2023-02-13T18:05:16.421Z,71
2023-02-13T18:10:16.524Z,71
2023-02-13T18:15:19.387Z,70
2023-02-13T18:20:19.407Z,70
2023-02-13T18:25:19.391Z,70
2023-02-13T18:30:19.453Z,70
2023-02-13T18:35:19.412Z,69
2023-02-13T18:40:19.521Z,69
2023-02-13T18:45:19.406Z,69
2023-02-13T18:50:16.446Z,69
2023-02-13T18:55:16.495Z,69
2023-02-13T19:00:19.416Z,69
2023-02-13T19:05:16.365Z,69
2023-02-13T19:10:19.607Z,68
2023-02-13T19:15:16.567Z,68
2023-02-13T19:20:17.070Z,68
2023-02-13T19:25:19.441Z,68
2023-02-13T19:30:19.491Z,68
2023-02-13T19:35:19.429Z,67
2023-02-13T19:40:19.435Z,67
2023-02-13T19:45:19.538Z,67
2023-02-13T19:50:19.449Z,67
2023-02-13T19:55:16.505Z,67
2023-02-13T20:00:16.569Z,67
2023-02-13T20:05:19.530Z,66
2023-02-13T20:10:19.465Z,66
2023-02-13T20:15:19.550Z,66
2023-02-13T20:20:19.608Z,65
2023-02-13T20:25:16.579Z,65
2023-02-13T20:30:19.495Z,65
2023-02-13T20:35:19.465Z,65
2023-02-13T20:40:19.447Z,65
2023-02-13T20:45:19.472Z,65
2023-02-13T20:50:19.476Z,65
2023-02-13T20:55:19.552Z,65
2023-02-13T21:00:19.512Z,66
2023-02-13T21:05:16.514Z,66
2023-02-13T21:10:19.511Z,66
2023-02-13T21:15:16.538Z,66
2023-02-13T21:20:16.593Z,65
2023-02-13T21:25:16.573Z,65
2023-02-13T21:30:16.799Z,65
2023-02-13T21:36:24.580Z,66
2023-02-13T21:40:16.410Z,66
2023-02-13T21:45:19.627Z,66
2023-02-13T21:50:19.560Z,66
2023-02-13T21:55:19.561Z,65
2023-02-13T22:00:19.785Z,65
2023-02-13T22:05:19.547Z,65
2023-02-13T22:10:19.583Z,66
2023-02-13T22:15:16.631Z,66
2023-02-13T22:20:16.598Z,66
2023-02-13T22:25:19.688Z,67
2023-02-13T22:30:16.805Z,67
2023-02-13T22:35:16.782Z,67
2023-02-13T22:40:16.665Z,68
2023-02-13T22:45:16.651Z,68
2023-02-13T22:50:19.640Z,68
2023-02-13T22:55:19.614Z,68
2023-02-13T23:00:16.644Z,67
2023-02-13T23:05:19.917Z,67
2023-02-13T23:10:19.625Z,67
2023-02-13T23:15:19.584Z,67
2023-02-13T23:20:19.635Z,67
2023-02-13T23:25:19.664Z,67
2023-02-13T23:30:19.624Z,67
2023-02-13T23:35:19.666Z,67
2023-02-13T23:40:19.825Z,68
2023-02-13T23:45:19.660Z,68
2023-02-13T23:50:19.634Z,68
2023-02-13T23:55:19.653Z,68
